createdAt,value
2018-09-03T00:00:01.577Z,1004.21
2018-09-03T00:05:02.046Z,1004.1
2018-09-03T00:10:01.379Z,1004.06
2018-09-03T00:15:01.825Z,1003.95
2018-09-03T00:20:02.265Z,1003.88
2018-09-03T00:25:01.540Z,1003.7
2018-09-03T00:30:02.009Z,1003.68
2018-09-03T00:35:01.275Z,1003.59
2018-09-03T00:40:01.727Z,1003.58
2018-09-03T00:45:01.966Z,1003.54
2018-09-03T00:50:02.313Z,1003.46
2018-09-03T00:55:01.770Z,1003.39
2018-09-03T01:00:02.150Z,1003.4
2018-09-03T01:05:01.543Z,1003.47
2018-09-03T01:10:01.945Z,1003.4
2018-09-03T01:15:02.381Z,1003.39
2018-09-03T01:20:02.245Z,1003.39
2018-09-03T01:25:01.549Z,1003.36
2018-09-03T01:30:01.817Z,1003.45
2018-09-03T01:35:02.309Z,1003.42
2018-09-03T01:40:01.612Z,1003.52
2018-09-03T01:45:01.871Z,1003.54
2018-09-03T01:50:02.365Z,1003.69
2018-09-03T01:55:01.642Z,1003.86
2018-09-03T02:00:01.885Z,1003.94
2018-09-03T02:05:02.392Z,1003.95
2018-09-03T02:10:01.657Z,1003.93
2018-09-03T02:15:02.004Z,1003.81
2018-09-03T02:20:01.275Z,1003.72
2018-09-03T02:25:01.760Z,1003.71
2018-09-03T02:30:02.172Z,1003.68
2018-09-03T02:35:01.494Z,1003.79
2018-09-03T02:40:02.058Z,1003.7
2018-09-03T02:45:01.322Z,1003.55
2018-09-03T02:50:01.590Z,1003.46
2018-09-03T02:55:01.838Z,1003.46
2018-09-03T03:00:02.054Z,1003.46
2018-09-03T03:05:01.337Z,1003.58
2018-09-03T03:10:01.593Z,1003.59
2018-09-03T03:15:01.868Z,1003.47
2018-09-03T03:20:02.391Z,1003.41
2018-09-03T03:25:01.804Z,1003.3
2018-09-03T03:30:02.098Z,1003.31
2018-09-03T03:35:01.391Z,1003.26
2018-09-03T03:40:01.663Z,1003.15
2018-09-03T03:45:01.890Z,1003.17
2018-09-03T03:50:02.289Z,1003.04
2018-09-03T03:55:01.758Z,1003.05
2018-09-03T04:00:02.057Z,1003.06
2018-09-03T04:05:01.343Z,1003.14
2018-09-03T04:10:01.633Z,1003.07
2018-09-03T04:15:01.865Z,1003.06
2018-09-03T04:20:02.408Z,1003.02
2018-09-03T04:25:01.828Z,1002.86
2018-09-03T04:30:02.126Z,1002.83
2018-09-03T04:35:01.504Z,1002.94
2018-09-03T04:40:01.372Z,1002.87
2018-09-03T04:45:01.669Z,1002.78
2018-09-03T04:50:02.067Z,1002.93
2018-09-03T04:55:01.338Z,1002.93
2018-09-03T05:00:01.655Z,1002.97
2018-09-03T05:05:02.152Z,1002.9
2018-09-03T05:10:01.402Z,1002.85
2018-09-03T05:15:01.701Z,1002.82
2018-09-03T05:20:02.165Z,1002.89
2018-09-03T05:25:01.440Z,1002.95
2018-09-03T05:30:01.762Z,1002.93
2018-09-03T05:35:02.295Z,1002.88
2018-09-03T05:40:01.539Z,1002.81
2018-09-03T05:45:01.792Z,1002.72
2018-09-03T05:50:02.395Z,1002.72
2018-09-03T05:55:01.680Z,1002.84
2018-09-03T06:00:01.930Z,1002.81
2018-09-03T06:05:02.418Z,1002.88
2018-09-03T06:10:01.686Z,1002.86
2018-09-03T06:15:01.938Z,1002.85
2018-09-03T06:20:02.439Z,1002.78
2018-09-03T06:25:01.710Z,1002.68
2018-09-03T06:30:01.935Z,1002.75
2018-09-03T06:35:02.458Z,1002.72
2018-09-03T06:40:01.737Z,1002.74
2018-09-03T06:45:01.982Z,1002.75
2018-09-03T06:50:02.496Z,1002.82
2018-09-03T06:55:01.758Z,1002.77
2018-09-03T07:00:02.027Z,1002.72
2018-09-03T07:05:01.288Z,1002.72
2018-09-03T07:10:01.530Z,1002.71
2018-09-03T07:15:01.777Z,1002.72
2018-09-03T07:20:02.324Z,1002.69
2018-09-03T07:25:01.593Z,1002.64
2018-09-03T07:30:01.824Z,1002.72
2018-09-03T07:35:02.457Z,1002.57
2018-09-03T07:40:01.773Z,1002.72
2018-09-03T07:45:02.074Z,1002.73
2018-09-03T07:50:01.323Z,1002.62
2018-09-03T07:55:01.638Z,1002.63
2018-09-03T08:00:01.930Z,1002.44
2018-09-03T08:05:02.471Z,1002.43
2018-09-03T08:10:01.720Z,1002.51
2018-09-03T08:15:02.025Z,1002.56
2018-09-03T08:20:01.600Z,1002.51
2018-09-03T08:25:01.838Z,1002.51
2018-09-03T08:30:02.173Z,1002.61
2018-09-03T08:35:01.447Z,1002.66
2018-09-03T08:40:01.991Z,1002.6
2018-09-03T08:45:01.317Z,1002.53
2018-09-03T08:50:01.729Z,1002.48
2018-09-03T08:55:01.983Z,1002.5
2018-09-03T09:00:02.232Z,1002.48
2018-09-03T09:05:01.506Z,1002.55
2018-09-03T09:10:01.777Z,1002.61
2018-09-03T09:15:02.039Z,1002.67
2018-09-03T09:20:01.284Z,1002.67
2018-09-03T09:25:01.709Z,1002.53
2018-09-03T09:30:02.076Z,1002.53
2018-09-03T09:35:01.337Z,1002.4
2018-09-03T09:40:01.598Z,1002.35
2018-09-03T09:45:01.857Z,1002.35
2018-09-03T09:50:02.243Z,1002.25
2018-09-03T09:55:01.751Z,1002.27
2018-09-03T10:00:02.067Z,1002.19
2018-09-03T10:05:01.326Z,1002.09
2018-09-03T10:10:01.616Z,1002.16
2018-09-03T10:15:01.854Z,1002.17
2018-09-03T10:20:02.337Z,1002.09
2018-09-03T10:25:01.600Z,1001.98
2018-09-03T10:30:01.848Z,1001.99
2018-09-03T10:35:02.245Z,1001.88
2018-09-03T10:40:01.534Z,1001.88
2018-09-03T10:45:01.800Z,1001.96
2018-09-03T10:50:02.303Z,1001.85
2018-09-03T10:55:01.587Z,1001.78
2018-09-03T11:00:01.824Z,1001.81
2018-09-03T11:05:02.417Z,1001.68
2018-09-03T11:10:01.674Z,1001.66
2018-09-03T11:15:01.910Z,1001.63
2018-09-03T11:20:02.659Z,1001.57
2018-09-03T11:25:02.088Z,1001.45
2018-09-03T11:30:01.325Z,1001.43
2018-09-03T11:35:01.943Z,1001.34
2018-09-03T11:40:01.272Z,1001.32
2018-09-03T11:45:01.572Z,1001.34
2018-09-03T11:50:02.047Z,1001.31
2018-09-03T11:55:01.295Z,1001.26
2018-09-03T12:00:01.536Z,1001.27
2018-09-03T12:05:02.069Z,1001.31
2018-09-03T12:10:01.325Z,1001.27
2018-09-03T12:15:01.569Z,1001.3
2018-09-03T12:20:02.016Z,1001.27
2018-09-03T12:25:01.287Z,1001.29
2018-09-03T12:30:01.558Z,1001.28
2018-09-03T12:35:02.032Z,1001.26
2018-09-03T12:40:01.276Z,1001.28
2018-09-03T12:45:01.615Z,1001.27
2018-09-03T12:50:02.173Z,1001.26
2018-09-03T12:55:01.448Z,1001.26
2018-09-03T13:00:05.892Z,1001.26
2018-09-03T13:05:02.425Z,1001.25
2018-09-03T13:10:01.731Z,1001.24
2018-09-03T13:15:01.973Z,1001.26
2018-09-03T13:20:01.394Z,1001.27
2018-09-03T13:25:02.076Z,1001.22
2018-09-03T13:30:01.326Z,1001.24
2018-09-03T13:35:01.761Z,1001.22
2018-09-03T13:40:02.041Z,1001.17
2018-09-03T13:45:01.313Z,1001.16
2018-09-03T13:50:01.682Z,1001.18
2018-09-03T13:55:02.471Z,1001.16
2018-09-03T14:00:01.788Z,1001.17
2018-09-03T14:05:02.272Z,1001.17
2018-09-03T14:10:01.729Z,1001.2
2018-09-03T14:15:02.004Z,1001.16
2018-09-03T14:20:01.964Z,1001.19
2018-09-03T14:25:01.305Z,1001.16
2018-09-03T14:30:01.621Z,1001.16
2018-09-03T14:35:02.277Z,1001.14
2018-09-03T14:40:01.544Z,1001.09
2018-09-03T14:45:01.783Z,1001.1
2018-09-03T14:50:02.300Z,1000.98
2018-09-03T14:55:01.560Z,1001.07
2018-09-03T15:00:01.843Z,1000.95
2018-09-03T15:05:02.271Z,1001.02
2018-09-03T15:10:01.604Z,1000.98
2018-09-03T15:15:02.204Z,1000.96
2018-09-03T15:20:01.977Z,1000.99
2018-09-03T15:25:01.333Z,1000.94
2018-09-03T15:30:01.662Z,1001.04
2018-09-03T15:35:02.142Z,1001.02
2018-09-03T15:40:01.382Z,1000.96
2018-09-03T15:45:01.658Z,1000.96
2018-09-03T15:50:02.112Z,1000.97
2018-09-03T15:55:01.346Z,1000.93
2018-09-03T16:00:01.649Z,1000.89
2018-09-03T16:05:02.128Z,1000.92
2018-09-03T16:10:01.402Z,1000.94
2018-09-03T16:15:01.641Z,1000.94
2018-09-03T16:20:01.900Z,1000.96
2018-09-03T16:25:02.287Z,1000.91
2018-09-03T16:30:01.564Z,1000.88
2018-09-03T16:35:01.995Z,1000.88
2018-09-03T16:40:01.559Z,1000.82
2018-09-03T16:45:01.820Z,1000.86
2018-09-03T16:50:02.266Z,1000.82
2018-09-03T16:55:01.546Z,1000.86
2018-09-03T17:00:01.789Z,1000.87
2018-09-03T17:05:02.317Z,1000.87
2018-09-03T17:10:01.583Z,1000.81
2018-09-03T17:15:01.819Z,1000.84
2018-09-03T17:20:02.343Z,1000.84
2018-09-03T17:25:01.611Z,1000.91
2018-09-03T17:30:01.874Z,1000.87
2018-09-03T17:35:02.374Z,1000.88
2018-09-03T17:40:01.642Z,1000.91
2018-09-03T17:45:01.872Z,1000.93
2018-09-03T17:50:02.328Z,1000.91
2018-09-03T17:55:01.634Z,1000.93
2018-09-03T18:00:01.919Z,1001
2018-09-03T18:05:02.415Z,1000.98
2018-09-03T18:10:01.682Z,1000.91
2018-09-03T18:15:01.938Z,1000.99
2018-09-03T18:20:02.465Z,1001.01
2018-09-03T18:25:01.821Z,1000.98
2018-09-03T18:30:02.158Z,1001.01
2018-09-03T18:35:01.443Z,1001.07
2018-09-03T18:40:01.722Z,1001.12
2018-09-03T18:45:01.942Z,1001.12
2018-09-03T18:50:02.410Z,1001.14
2018-09-03T18:55:01.687Z,1001.15
2018-09-03T19:00:02.415Z,1001.24
2018-09-03T19:05:01.843Z,1001.25
2018-09-03T19:10:02.112Z,1001.28
2018-09-03T19:15:01.337Z,1001.22
2018-09-03T19:20:01.797Z,1001.24
2018-09-03T19:25:02.175Z,1001.12
2018-09-03T19:30:01.484Z,1001.11
2018-09-03T19:35:02.013Z,1001.12
2018-09-03T19:40:01.291Z,1001.09
2018-09-03T19:45:01.592Z,1001.1
2018-09-03T19:50:01.946Z,1001.14
2018-09-03T19:55:02.212Z,1001.11
2018-09-03T20:00:01.452Z,1001.04
2018-09-03T20:05:01.921Z,1001.08
2018-09-03T20:10:02.223Z,1001.04
2018-09-03T20:15:01.876Z,1001
2018-09-03T20:20:02.342Z,1000.99
2018-09-03T20:25:01.703Z,1000.88
2018-09-03T20:30:01.948Z,1000.88
2018-09-03T20:35:02.491Z,1000.9
2018-09-03T20:40:01.726Z,1000.91
2018-09-03T20:45:01.955Z,1000.88
2018-09-03T20:50:02.452Z,1000.94
2018-09-03T20:55:01.787Z,1000.89
2018-09-03T21:00:02.081Z,1000.87
2018-09-03T21:05:01.395Z,1000.88
2018-09-03T21:10:01.666Z,1000.83
2018-09-03T21:15:01.930Z,1000.88
2018-09-03T21:20:02.487Z,1000.97
2018-09-03T21:25:01.853Z,1000.92
2018-09-03T21:30:02.133Z,1000.93
2018-09-03T21:35:01.443Z,1000.9
2018-09-03T21:40:01.716Z,1000.91
2018-09-03T21:45:01.956Z,1000.89
2018-09-03T21:50:02.484Z,1000.93
2018-09-03T21:55:01.742Z,1000.91
2018-09-03T22:00:02.090Z,1000.9
2018-09-03T22:05:01.372Z,1000.93
2018-09-03T22:10:01.665Z,1000.94
2018-09-03T22:15:01.903Z,1000.85
2018-09-03T22:20:02.401Z,1000.88
2018-09-03T22:25:01.740Z,1000.83
2018-09-03T22:30:02.020Z,1000.9
2018-09-03T22:35:01.285Z,1000.85
2018-09-03T22:40:01.557Z,1000.89
2018-09-03T22:45:01.792Z,1000.84
2018-09-03T22:50:02.338Z,1000.8
2018-09-03T22:55:01.675Z,1000.81
2018-09-03T23:00:01.970Z,1000.79
2018-09-03T23:05:01.307Z,1000.82
2018-09-03T23:10:01.621Z,1000.81
2018-09-03T23:15:01.859Z,1000.85
2018-09-03T23:20:02.305Z,1000.87
2018-09-03T23:25:01.589Z,1000.91
2018-09-03T23:30:01.874Z,1000.88
2018-09-03T23:35:02.340Z,1000.79
2018-09-03T23:40:01.609Z,1000.75
2018-09-03T23:45:01.851Z,1000.66
2018-09-03T23:50:02.317Z,1000.65
2018-09-03T23:55:01.575Z,1000.65
